sensor_id;sensor_type;location;lat;lon;timestamp;P1;durP1;ratioP1;P2;durP2;ratioP2
78072;SDS011;67281;48.770;11.440;2023-07-16T00:00:43;5.30;;;3.35;;
78072;SDS011;67281;48.770;11.440;2023-07-16T00:03:10;4.88;;;3.00;;
78072;SDS011;67281;48.770;11.440;2023-07-16T00:05:37;5.97;;;2.92;;
78072;SDS011;67281;48.770;11.440;2023-07-16T00:08:05;4.88;;;3.45;;
78072;SDS011;67281;48.770;11.440;2023-07-16T00:10:35;5.03;;;3.30;;
78072;SDS011;67281;48.770;11.440;2023-07-16T00:13:03;5.78;;;3.38;;
78072;SDS011;67281;48.770;11.440;2023-07-16T00:15:30;4.60;;;3.15;;
78072;SDS011;67281;48.770;11.440;2023-07-16T00:17:57;4.75;;;3.50;;
78072;SDS011;67281;48.770;11.440;2023-07-16T00:20:24;4.63;;;3.13;;
78072;SDS011;67281;48.770;11.440;2023-07-16T00:22:51;4.43;;;2.90;;
78072;SDS011;67281;48.770;11.440;2023-07-16T00:25:18;4.18;;;2.95;;
78072;SDS011;67281;48.770;11.440;2023-07-16T00:27:46;5.78;;;3.20;;
78072;SDS011;67281;48.770;11.440;2023-07-16T00:30:13;6.28;;;3.38;;
78072;SDS011;67281;48.770;11.440;2023-07-16T00:32:39;5.65;;;3.30;;
78072;SDS011;67281;48.770;11.440;2023-07-16T00:35:06;6.32;;;3.10;;
78072;SDS011;67281;48.770;11.440;2023-07-16T00:37:34;3.47;;;2.63;;
78072;SDS011;67281;48.770;11.440;2023-07-16T00:40:01;2.80;;;2.53;;
78072;SDS011;67281;48.770;11.440;2023-07-16T00:42:28;5.57;;;3.20;;
78072;SDS011;67281;48.770;11.440;2023-07-16T00:44:55;5.85;;;3.33;;
78072;SDS011;67281;48.770;11.440;2023-07-16T00:47:22;3.50;;;3.20;;
78072;SDS011;67281;48.770;11.440;2023-07-16T00:49:49;4.05;;;3.05;;
78072;SDS011;67281;48.770;11.440;2023-07-16T00:52:18;6.60;;;3.15;;
78072;SDS011;67281;48.770;11.440;2023-07-16T00:54:47;4.03;;;3.45;;
78072;SDS011;67281;48.770;11.440;2023-07-16T00:57:15;5.07;;;3.30;;
78072;SDS011;67281;48.770;11.440;2023-07-16T00:59:42;3.97;;;3.38;;
78072;SDS011;67281;48.770;11.440;2023-07-16T01:02:09;4.85;;;2.95;;
78072;SDS011;67281;48.770;11.440;2023-07-16T01:04:36;6.38;;;3.45;;
78072;SDS011;67281;48.770;11.440;2023-07-16T01:07:04;4.90;;;3.30;;
78072;SDS011;67281;48.770;11.440;2023-07-16T01:09:35;5.88;;;3.58;;
78072;SDS011;67281;48.770;11.440;2023-07-16T01:12:06;4.15;;;3.30;;
78072;SDS011;67281;48.770;11.440;2023-07-16T01:14:34;6.10;;;3.75;;
78072;SDS011;67281;48.770;11.440;2023-07-16T01:17:05;4.53;;;3.38;;
78072;SDS011;67281;48.770;11.440;2023-07-16T01:19:33;6.15;;;3.38;;
78072;SDS011;67281;48.770;11.440;2023-07-16T01:27:34;5.30;;;3.42;;
78072;SDS011;67281;48.770;11.440;2023-07-16T01:30:22;6.32;;;2.97;;
78072;SDS011;67281;48.770;11.440;2023-07-16T01:32:50;4.10;;;3.45;;
78072;SDS011;67281;48.770;11.440;2023-07-16T01:35:17;3.85;;;3.00;;
78072;SDS011;67281;48.770;11.440;2023-07-16T01:37:45;4.78;;;3.45;;
78072;SDS011;67281;48.770;11.440;2023-07-16T01:40:12;5.53;;;3.75;;
78072;SDS011;67281;48.770;11.440;2023-07-16T01:42:39;7.00;;;3.80;;
78072;SDS011;67281;48.770;11.440;2023-07-16T01:45:06;6.22;;;3.13;;
78072;SDS011;67281;48.770;11.440;2023-07-16T01:47:39;7.47;;;3.55;;
78072;SDS011;67281;48.770;11.440;2023-07-16T01:50:07;4.43;;;3.45;;
78072;SDS011;67281;48.770;11.440;2023-07-16T01:52:34;4.20;;;3.47;;
78072;SDS011;67281;48.770;11.440;2023-07-16T01:55:01;5.15;;;3.60;;
78072;SDS011;67281;48.770;11.440;2023-07-16T01:57:27;6.05;;;3.47;;
78072;SDS011;67281;48.770;11.440;2023-07-16T01:59:54;5.53;;;3.72;;
78072;SDS011;67281;48.770;11.440;2023-07-16T02:02:21;6.25;;;3.78;;
78072;SDS011;67281;48.770;11.440;2023-07-16T02:04:48;5.00;;;3.33;;
78072;SDS011;67281;48.770;11.440;2023-07-16T02:07:15;5.80;;;3.83;;
78072;SDS011;67281;48.770;11.440;2023-07-16T02:09:42;4.60;;;3.30;;
78072;SDS011;67281;48.770;11.440;2023-07-16T02:12:08;4.10;;;3.15;;
78072;SDS011;67281;48.770;11.440;2023-07-16T02:14:35;5.75;;;3.33;;
78072;SDS011;67281;48.770;11.440;2023-07-16T02:17:02;6.43;;;3.25;;
78072;SDS011;67281;48.770;11.440;2023-07-16T02:19:29;5.20;;;3.38;;
78072;SDS011;67281;48.770;11.440;2023-07-16T02:21:56;4.53;;;2.97;;
78072;SDS011;67281;48.770;11.440;2023-07-16T02:24:23;3.35;;;2.80;;
78072;SDS011;67281;48.770;11.440;2023-07-16T02:26:50;4.03;;;2.85;;
78072;SDS011;67281;48.770;11.440;2023-07-16T02:29:17;5.70;;;3.20;;
78072;SDS011;67281;48.770;11.440;2023-07-16T02:31:43;6.18;;;3.35;;
78072;SDS011;67281;48.770;11.440;2023-07-16T02:34:12;5.32;;;3.08;;
78072;SDS011;67281;48.770;11.440;2023-07-16T02:36:39;4.68;;;2.85;;
78072;SDS011;67281;48.770;11.440;2023-07-16T02:39:06;6.13;;;2.97;;
78072;SDS011;67281;48.770;11.440;2023-07-16T02:41:33;4.68;;;3.35;;
78072;SDS011;67281;48.770;11.440;2023-07-16T02:44:00;4.07;;;3.08;;
78072;SDS011;67281;48.770;11.440;2023-07-16T02:46:28;3.63;;;2.50;;
78072;SDS011;67281;48.770;11.440;2023-07-16T02:48:55;5.10;;;2.70;;
78072;SDS011;67281;48.770;11.440;2023-07-16T02:51:21;5.40;;;3.58;;
78072;SDS011;67281;48.770;11.440;2023-07-16T02:53:48;7.03;;;3.10;;
78072;SDS011;67281;48.770;11.440;2023-07-16T02:56:15;3.05;;;2.75;;
78072;SDS011;67281;48.770;11.440;2023-07-16T02:58:43;4.63;;;2.63;;
78072;SDS011;67281;48.770;11.440;2023-07-16T03:01:10;3.67;;;2.85;;
78072;SDS011;67281;48.770;11.440;2023-07-16T03:03:37;3.75;;;2.72;;
78072;SDS011;67281;48.770;11.440;2023-07-16T03:06:04;4.00;;;2.72;;
78072;SDS011;67281;48.770;11.440;2023-07-16T03:08:31;3.38;;;2.65;;
78072;SDS011;67281;48.770;11.440;2023-07-16T03:10:58;5.35;;;2.50;;
78072;SDS011;67281;48.770;11.440;2023-07-16T03:13:25;3.10;;;2.58;;
78072;SDS011;67281;48.770;11.440;2023-07-16T03:15:51;3.38;;;2.45;;
78072;SDS011;67281;48.770;11.440;2023-07-16T03:18:18;3.50;;;2.35;;
78072;SDS011;67281;48.770;11.440;2023-07-16T03:20:45;3.13;;;2.30;;
78072;SDS011;67281;48.770;11.440;2023-07-16T03:23:12;3.50;;;2.40;;
78072;SDS011;67281;48.770;11.440;2023-07-16T03:25:39;2.60;;;2.40;;
78072;SDS011;67281;48.770;11.440;2023-07-16T03:28:06;3.60;;;2.03;;
78072;SDS011;67281;48.770;11.440;2023-07-16T03:30:33;2.75;;;2.03;;
78072;SDS011;67281;48.770;11.440;2023-07-16T03:33:00;4.35;;;2.42;;
78072;SDS011;67281;48.770;11.440;2023-07-16T03:35:29;2.63;;;2.10;;
78072;SDS011;67281;48.770;11.440;2023-07-16T03:37:56;2.67;;;2.17;;
78072;SDS011;67281;48.770;11.440;2023-07-16T03:40:24;2.65;;;1.98;;
78072;SDS011;67281;48.770;11.440;2023-07-16T03:42:52;2.38;;;1.95;;
78072;SDS011;67281;48.770;11.440;2023-07-16T03:45:19;4.13;;;1.77;;
78072;SDS011;67281;48.770;11.440;2023-07-16T03:47:46;2.65;;;1.95;;
78072;SDS011;67281;48.770;11.440;2023-07-16T03:50:13;2.35;;;1.83;;
78072;SDS011;67281;48.770;11.440;2023-07-16T03:52:40;3.97;;;1.60;;
78072;SDS011;67281;48.770;11.440;2023-07-16T03:55:07;3.33;;;2.15;;
78072;SDS011;67281;48.770;11.440;2023-07-16T03:57:34;3.10;;;2.03;;
78072;SDS011;67281;48.770;11.440;2023-07-16T04:00:02;5.78;;;1.88;;
78072;SDS011;67281;48.770;11.440;2023-07-16T04:02:30;1.88;;;1.75;;
78072;SDS011;67281;48.770;11.440;2023-07-16T04:04:57;1.92;;;1.35;;
78072;SDS011;67281;48.770;11.440;2023-07-16T04:07:24;2.00;;;1.80;;
78072;SDS011;67281;48.770;11.440;2023-07-16T04:09:51;2.70;;;1.88;;
78072;SDS011;67281;48.770;11.440;2023-07-16T04:12:18;3.17;;;2.15;;
78072;SDS011;67281;48.770;11.440;2023-07-16T04:14:46;2.67;;;1.85;;
78072;SDS011;67281;48.770;11.440;2023-07-16T04:17:13;3.70;;;2.13;;
78072;SDS011;67281;48.770;11.440;2023-07-16T04:19:40;3.67;;;1.80;;
78072;SDS011;67281;48.770;11.440;2023-07-16T04:22:06;2.97;;;1.77;;
78072;SDS011;67281;48.770;11.440;2023-07-16T04:24:33;2.35;;;1.83;;
78072;SDS011;67281;48.770;11.440;2023-07-16T04:27:00;4.18;;;2.20;;
78072;SDS011;67281;48.770;11.440;2023-07-16T04:29:27;2.33;;;2.13;;
78072;SDS011;67281;48.770;11.440;2023-07-16T04:31:54;3.17;;;1.83;;
78072;SDS011;67281;48.770;11.440;2023-07-16T04:34:20;3.80;;;2.00;;
78072;SDS011;67281;48.770;11.440;2023-07-16T04:36:47;2.17;;;1.98;;
78072;SDS011;67281;48.770;11.440;2023-07-16T04:39:14;5.83;;;1.77;;
78072;SDS011;67281;48.770;11.440;2023-07-16T04:41:41;2.92;;;1.60;;
78072;SDS011;67281;48.770;11.440;2023-07-16T04:44:08;3.15;;;1.83;;
78072;SDS011;67281;48.770;11.440;2023-07-16T04:46:35;2.42;;;1.85;;
78072;SDS011;67281;48.770;11.440;2023-07-16T04:49:02;2.63;;;1.75;;
78072;SDS011;67281;48.770;11.440;2023-07-16T04:51:29;1.83;;;1.53;;
78072;SDS011;67281;48.770;11.440;2023-07-16T04:53:56;2.38;;;1.67;;
78072;SDS011;67281;48.770;11.440;2023-07-16T04:56:23;1.48;;;1.20;;
78072;SDS011;67281;48.770;11.440;2023-07-16T04:58:49;2.33;;;1.50;;
78072;SDS011;67281;48.770;11.440;2023-07-16T05:01:16;1.63;;;1.35;;
78072;SDS011;67281;48.770;11.440;2023-07-16T05:03:43;2.08;;;1.40;;
78072;SDS011;67281;48.770;11.440;2023-07-16T05:06:11;3.83;;;1.50;;
78072;SDS011;67281;48.770;11.440;2023-07-16T05:08:37;2.08;;;1.40;;
78072;SDS011;67281;48.770;11.440;2023-07-16T05:11:04;2.42;;;1.27;;
78072;SDS011;67281;48.770;11.440;2023-07-16T05:13:31;1.45;;;1.30;;
78072;SDS011;67281;48.770;11.440;2023-07-16T05:15:58;2.15;;;1.85;;
78072;SDS011;67281;48.770;11.440;2023-07-16T05:18:25;2.65;;;1.50;;
78072;SDS011;67281;48.770;11.440;2023-07-16T05:20:52;4.15;;;1.92;;
78072;SDS011;67281;48.770;11.440;2023-07-16T05:23:19;1.58;;;1.33;;
78072;SDS011;67281;48.770;11.440;2023-07-16T05:25:46;1.48;;;1.30;;
78072;SDS011;67281;48.770;11.440;2023-07-16T05:28:15;5.10;;;1.63;;
78072;SDS011;67281;48.770;11.440;2023-07-16T05:30:42;2.88;;;1.63;;
78072;SDS011;67281;48.770;11.440;2023-07-16T05:33:09;2.60;;;1.70;;
78072;SDS011;67281;48.770;11.440;2023-07-16T05:35:38;2.50;;;1.88;;
78072;SDS011;67281;48.770;11.440;2023-07-16T05:38:05;1.50;;;1.40;;
78072;SDS011;67281;48.770;11.440;2023-07-16T05:40:32;4.30;;;1.65;;
78072;SDS011;67281;48.770;11.440;2023-07-16T05:42:59;2.30;;;1.52;;
78072;SDS011;67281;48.770;11.440;2023-07-16T05:45:26;2.58;;;1.40;;
78072;SDS011;67281;48.770;11.440;2023-07-16T05:47:52;2.08;;;1.60;;
78072;SDS011;67281;48.770;11.440;2023-07-16T05:50:19;1.70;;;1.45;;
78072;SDS011;67281;48.770;11.440;2023-07-16T05:52:46;2.07;;;1.40;;
78072;SDS011;67281;48.770;11.440;2023-07-16T05:55:14;1.40;;;1.27;;
78072;SDS011;67281;48.770;11.440;2023-07-16T05:57:41;1.77;;;1.33;;
78072;SDS011;67281;48.770;11.440;2023-07-16T06:00:09;2.97;;;1.60;;
78072;SDS011;67281;48.770;11.440;2023-07-16T06:02:37;2.30;;;1.55;;
78072;SDS011;67281;48.770;11.440;2023-07-16T06:05:04;2.30;;;1.70;;
78072;SDS011;67281;48.770;11.440;2023-07-16T06:07:31;2.30;;;1.45;;
78072;SDS011;67281;48.770;11.440;2023-07-16T06:09:58;2.53;;;1.73;;
78072;SDS011;67281;48.770;11.440;2023-07-16T06:12:25;3.30;;;1.80;;
78072;SDS011;67281;48.770;11.440;2023-07-16T06:14:52;2.20;;;1.50;;
78072;SDS011;67281;48.770;11.440;2023-07-16T06:17:19;1.80;;;1.30;;
78072;SDS011;67281;48.770;11.440;2023-07-16T06:19:46;1.80;;;1.50;;
78072;SDS011;67281;48.770;11.440;2023-07-16T06:22:16;3.20;;;1.65;;
78072;SDS011;67281;48.770;11.440;2023-07-16T06:24:43;2.07;;;1.40;;
78072;SDS011;67281;48.770;11.440;2023-07-16T06:27:10;1.85;;;1.50;;
78072;SDS011;67281;48.770;11.440;2023-07-16T06:29:37;1.63;;;1.50;;
78072;SDS011;67281;48.770;11.440;2023-07-16T06:32:04;3.57;;;1.70;;
78072;SDS011;67281;48.770;11.440;2023-07-16T06:34:31;2.00;;;1.63;;
78072;SDS011;67281;48.770;11.440;2023-07-16T06:36:58;1.90;;;1.70;;
78072;SDS011;67281;48.770;11.440;2023-07-16T06:39:24;2.70;;;1.87;;
78072;SDS011;67281;48.770;11.440;2023-07-16T06:41:51;3.53;;;1.87;;
78072;SDS011;67281;48.770;11.440;2023-07-16T06:44:18;1.93;;;1.50;;
78072;SDS011;67281;48.770;11.440;2023-07-16T06:46:45;3.23;;;1.87;;
78072;SDS011;67281;48.770;11.440;2023-07-16T06:49:11;1.60;;;1.50;;
78072;SDS011;67281;48.770;11.440;2023-07-16T06:51:38;2.27;;;1.70;;
78072;SDS011;67281;48.770;11.440;2023-07-16T06:54:06;1.53;;;1.40;;
78072;SDS011;67281;48.770;11.440;2023-07-16T06:56:33;2.10;;;1.70;;
78072;SDS011;67281;48.770;11.440;2023-07-16T06:59:00;1.53;;;1.40;;
78072;SDS011;67281;48.770;11.440;2023-07-16T07:01:27;2.83;;;2.03;;
78072;SDS011;67281;48.770;11.440;2023-07-16T07:03:54;3.63;;;1.97;;
78072;SDS011;67281;48.770;11.440;2023-07-16T07:06:21;1.97;;;1.53;;
78072;SDS011;67281;48.770;11.440;2023-07-16T07:08:51;7.33;;;1.80;;
78072;SDS011;67281;48.770;11.440;2023-07-16T07:11:18;3.77;;;1.83;;
78072;SDS011;67281;48.770;11.440;2023-07-16T07:13:45;1.87;;;1.60;;
78072;SDS011;67281;48.770;11.440;2023-07-16T07:16:12;4.50;;;2.10;;
78072;SDS011;67281;48.770;11.440;2023-07-16T07:18:39;2.37;;;1.60;;
78072;SDS011;67281;48.770;11.440;2023-07-16T07:21:06;4.10;;;1.67;;
78072;SDS011;67281;48.770;11.440;2023-07-16T07:23:33;2.50;;;1.50;;
78072;SDS011;67281;48.770;11.440;2023-07-16T07:26:00;1.80;;;1.53;;
78072;SDS011;67281;48.770;11.440;2023-07-16T07:28:27;2.43;;;1.40;;
78072;SDS011;67281;48.770;11.440;2023-07-16T07:30:54;3.67;;;1.80;;
78072;SDS011;67281;48.770;11.440;2023-07-16T07:33:21;4.90;;;1.83;;
78072;SDS011;67281;48.770;11.440;2023-07-16T07:35:48;3.87;;;1.90;;
78072;SDS011;67281;48.770;11.440;2023-07-16T07:38:15;1.97;;;1.30;;
78072;SDS011;67281;48.770;11.440;2023-07-16T07:40:42;7.50;;;1.80;;
78072;SDS011;67281;48.770;11.440;2023-07-16T07:43:10;4.37;;;2.07;;
78072;SDS011;67281;48.770;11.440;2023-07-16T07:45:37;7.17;;;2.10;;
78072;SDS011;67281;48.770;11.440;2023-07-16T07:48:04;5.30;;;1.97;;
78072;SDS011;67281;48.770;11.440;2023-07-16T07:50:31;4.28;;;1.90;;
78072;SDS011;67281;48.770;11.440;2023-07-16T07:52:58;4.13;;;2.33;;
78072;SDS011;67281;48.770;11.440;2023-07-16T07:55:25;3.67;;;1.77;;
78072;SDS011;67281;48.770;11.440;2023-07-16T07:57:52;3.15;;;1.60;;
78072;SDS011;67281;48.770;11.440;2023-07-16T08:00:19;2.28;;;1.75;;
78072;SDS011;67281;48.770;11.440;2023-07-16T08:02:46;2.03;;;1.73;;
78072;SDS011;67281;48.770;11.440;2023-07-16T08:05:13;2.60;;;1.60;;
78072;SDS011;67281;48.770;11.440;2023-07-16T08:07:41;2.37;;;1.53;;
78072;SDS011;67281;48.770;11.440;2023-07-16T08:10:08;3.00;;;1.60;;
78072;SDS011;67281;48.770;11.440;2023-07-16T08:12:35;2.63;;;1.70;;
78072;SDS011;67281;48.770;11.440;2023-07-16T08:15:02;3.80;;;1.60;;
78072;SDS011;67281;48.770;11.440;2023-07-16T08:17:30;3.33;;;1.93;;
78072;SDS011;67281;48.770;11.440;2023-07-16T08:19:57;2.27;;;1.70;;
78072;SDS011;67281;48.770;11.440;2023-07-16T08:22:24;1.70;;;1.40;;
78072;SDS011;67281;48.770;11.440;2023-07-16T08:24:51;2.87;;;1.70;;
78072;SDS011;67281;48.770;11.440;2023-07-16T08:27:18;4.13;;;2.23;;
78072;SDS011;67281;48.770;11.440;2023-07-16T08:29:46;3.27;;;1.93;;
78072;SDS011;67281;48.770;11.440;2023-07-16T08:32:13;3.00;;;1.50;;
78072;SDS011;67281;48.770;11.440;2023-07-16T08:34:40;5.50;;;1.77;;
78072;SDS011;67281;48.770;11.440;2023-07-16T08:37:06;3.40;;;2.13;;
78072;SDS011;67281;48.770;11.440;2023-07-16T08:39:33;6.33;;;2.23;;
78072;SDS011;67281;48.770;11.440;2023-07-16T08:42:00;3.53;;;1.83;;
78072;SDS011;67281;48.770;11.440;2023-07-16T08:44:28;4.23;;;1.97;;
78072;SDS011;67281;48.770;11.440;2023-07-16T08:46:55;3.60;;;1.63;;
78072;SDS011;67281;48.770;11.440;2023-07-16T08:49:23;2.03;;;1.50;;
78072;SDS011;67281;48.770;11.440;2023-07-16T08:51:50;2.77;;;1.73;;
78072;SDS011;67281;48.770;11.440;2023-07-16T08:54:18;2.83;;;1.80;;
78072;SDS011;67281;48.770;11.440;2023-07-16T08:56:47;4.27;;;2.10;;
78072;SDS011;67281;48.770;11.440;2023-07-16T08:59:14;2.33;;;1.70;;
78072;SDS011;67281;48.770;11.440;2023-07-16T09:01:41;2.33;;;1.60;;
78072;SDS011;67281;48.770;11.440;2023-07-16T09:04:09;2.07;;;1.33;;
78072;SDS011;67281;48.770;11.440;2023-07-16T09:06:36;3.30;;;1.40;;
78072;SDS011;67281;48.770;11.440;2023-07-16T09:09:03;2.60;;;1.53;;
78072;SDS011;67281;48.770;11.440;2023-07-16T09:11:30;4.17;;;1.70;;
78072;SDS011;67281;48.770;11.440;2023-07-16T09:13:57;1.67;;;1.43;;
78072;SDS011;67281;48.770;11.440;2023-07-16T09:16:23;2.17;;;1.60;;
78072;SDS011;67281;48.770;11.440;2023-07-16T09:18:50;2.13;;;1.50;;
78072;SDS011;67281;48.770;11.440;2023-07-16T09:21:17;2.83;;;1.80;;
78072;SDS011;67281;48.770;11.440;2023-07-16T09:23:44;2.33;;;1.73;;
78072;SDS011;67281;48.770;11.440;2023-07-16T09:26:11;2.77;;;1.60;;
78072;SDS011;67281;48.770;11.440;2023-07-16T09:28:38;2.20;;;1.77;;
78072;SDS011;67281;48.770;11.440;2023-07-16T09:31:05;1.53;;;1.40;;
78072;SDS011;67281;48.770;11.440;2023-07-16T09:33:33;3.60;;;1.70;;
78072;SDS011;67281;48.770;11.440;2023-07-16T09:36:00;5.03;;;1.97;;
78072;SDS011;67281;48.770;11.440;2023-07-16T09:38:30;2.33;;;1.70;;
78072;SDS011;67281;48.770;11.440;2023-07-16T09:40:58;2.27;;;1.63;;
78072;SDS011;67281;48.770;11.440;2023-07-16T09:43:25;3.07;;;1.57;;
78072;SDS011;67281;48.770;11.440;2023-07-16T09:45:52;1.80;;;1.57;;
78072;SDS011;67281;48.770;11.440;2023-07-16T09:48:19;2.13;;;1.50;;
78072;SDS011;67281;48.770;11.440;2023-07-16T09:50:50;5.30;;;1.60;;
78072;SDS011;67281;48.770;11.440;2023-07-16T09:53:21;2.17;;;1.97;;
78072;SDS011;67281;48.770;11.440;2023-07-16T09:55:50;4.27;;;1.73;;
78072;SDS011;67281;48.770;11.440;2023-07-16T09:58:19;4.07;;;1.90;;
78072;SDS011;67281;48.770;11.440;2023-07-16T10:00:49;3.07;;;2.10;;
78072;SDS011;67281;48.770;11.440;2023-07-16T10:03:18;3.53;;;2.13;;
78072;SDS011;67281;48.770;11.440;2023-07-16T10:05:45;3.23;;;1.90;;
78072;SDS011;67281;48.770;11.440;2023-07-16T10:08:15;4.80;;;1.70;;
78072;SDS011;67281;48.770;11.440;2023-07-16T10:10:47;5.20;;;1.80;;
78072;SDS011;67281;48.770;11.440;2023-07-16T10:13:16;4.10;;;1.80;;
78072;SDS011;67281;48.770;11.440;2023-07-16T10:18:38;4.10;;;1.73;;
78072;SDS011;67281;48.770;11.440;2023-07-16T10:21:08;6.00;;;2.47;;
78072;SDS011;67281;48.770;11.440;2023-07-16T10:23:39;2.97;;;1.70;;
78072;SDS011;67281;48.770;11.440;2023-07-16T10:26:09;3.43;;;1.70;;
78072;SDS011;67281;48.770;11.440;2023-07-16T10:28:39;2.45;;;1.73;;
78072;SDS011;67281;48.770;11.440;2023-07-16T10:31:06;2.00;;;1.48;;
78072;SDS011;67281;48.770;11.440;2023-07-16T10:33:44;2.28;;;1.77;;
78072;SDS011;67281;48.770;11.440;2023-07-16T10:36:17;5.05;;;1.83;;
78072;SDS011;67281;48.770;11.440;2023-07-16T10:38:45;1.88;;;1.77;;
78072;SDS011;67281;48.770;11.440;2023-07-16T10:41:12;1.80;;;1.60;;
78072;SDS011;67281;48.770;11.440;2023-07-16T10:43:39;4.47;;;1.93;;
78072;SDS011;67281;48.770;11.440;2023-07-16T10:46:06;1.73;;;1.30;;
78072;SDS011;67281;48.770;11.440;2023-07-16T10:48:33;1.98;;;1.63;;
78072;SDS011;67281;48.770;11.440;2023-07-16T10:51:00;3.10;;;1.88;;
78072;SDS011;67281;48.770;11.440;2023-07-16T10:53:27;4.00;;;1.95;;
78072;SDS011;67281;48.770;11.440;2023-07-16T10:55:54;2.92;;;2.00;;
78072;SDS011;67281;48.770;11.440;2023-07-16T10:58:20;4.33;;;1.70;;
78072;SDS011;67281;48.770;11.440;2023-07-16T11:00:47;3.45;;;1.92;;
78072;SDS011;67281;48.770;11.440;2023-07-16T11:03:15;3.17;;;1.80;;
78072;SDS011;67281;48.770;11.440;2023-07-16T11:05:45;3.77;;;2.03;;
78072;SDS011;67281;48.770;11.440;2023-07-16T11:08:21;3.05;;;1.70;;
78072;SDS011;67281;48.770;11.440;2023-07-16T11:10:54;2.00;;;1.80;;
78072;SDS011;67281;48.770;11.440;2023-07-16T11:13:28;3.55;;;1.90;;
78072;SDS011;67281;48.770;11.440;2023-07-16T11:16:06;4.20;;;2.03;;
78072;SDS011;67281;48.770;11.440;2023-07-16T11:18:36;1.70;;;1.60;;
78072;SDS011;67281;48.770;11.440;2023-07-16T11:21:04;3.08;;;1.70;;
78072;SDS011;67281;48.770;11.440;2023-07-16T11:23:34;2.75;;;1.77;;
78072;SDS011;67281;48.770;11.440;2023-07-16T11:26:04;3.30;;;1.70;;
78072;SDS011;67281;48.770;11.440;2023-07-16T11:28:41;2.08;;;1.52;;
78072;SDS011;67281;48.770;11.440;2023-07-16T11:31:15;3.17;;;1.63;;
78072;SDS011;67281;48.770;11.440;2023-07-16T11:33:46;2.63;;;1.70;;
78072;SDS011;67281;48.770;11.440;2023-07-16T11:36:13;2.65;;;1.70;;
78072;SDS011;67281;48.770;11.440;2023-07-16T11:38:41;2.03;;;1.63;;
78072;SDS011;67281;48.770;11.440;2023-07-16T11:41:09;2.13;;;1.83;;
78072;SDS011;67281;48.770;11.440;2023-07-16T11:43:36;2.15;;;1.65;;
78072;SDS011;67281;48.770;11.440;2023-07-16T11:46:14;5.50;;;1.83;;
78072;SDS011;67281;48.770;11.440;2023-07-16T11:48:43;2.30;;;1.88;;
78072;SDS011;67281;48.770;11.440;2023-07-16T11:51:10;2.15;;;1.90;;
78072;SDS011;67281;48.770;11.440;2023-07-16T11:53:40;1.83;;;1.55;;
78072;SDS011;67281;48.770;11.440;2023-07-16T11:56:07;3.35;;;2.03;;
78072;SDS011;67281;48.770;11.440;2023-07-16T11:58:34;4.57;;;1.85;;
78072;SDS011;67281;48.770;11.440;2023-07-16T12:01:01;3.53;;;1.90;;
78072;SDS011;67281;48.770;11.440;2023-07-16T12:03:29;5.43;;;1.95;;
78072;SDS011;67281;48.770;11.440;2023-07-16T12:05:56;2.70;;;1.85;;
78072;SDS011;67281;48.770;11.440;2023-07-16T12:08:26;2.97;;;1.53;;
78072;SDS011;67281;48.770;11.440;2023-07-16T12:10:52;2.45;;;2.25;;
78072;SDS011;67281;48.770;11.440;2023-07-16T12:13:19;6.22;;;2.17;;
78072;SDS011;67281;48.770;11.440;2023-07-16T12:15:46;1.90;;;1.80;;
78072;SDS011;67281;48.770;11.440;2023-07-16T12:18:13;2.33;;;1.90;;
78072;SDS011;67281;48.770;11.440;2023-07-16T12:20:40;2.92;;;1.90;;
78072;SDS011;67281;48.770;11.440;2023-07-16T12:23:07;3.22;;;1.98;;
78072;SDS011;67281;48.770;11.440;2023-07-16T12:25:34;2.42;;;2.10;;
78072;SDS011;67281;48.770;11.440;2023-07-16T12:28:01;1.80;;;1.60;;
78072;SDS011;67281;48.770;11.440;2023-07-16T12:30:29;2.10;;;1.90;;
78072;SDS011;67281;48.770;11.440;2023-07-16T12:32:55;1.70;;;1.60;;
78072;SDS011;67281;48.770;11.440;2023-07-16T12:35:23;2.65;;;1.90;;
78072;SDS011;67281;48.770;11.440;2023-07-16T12:37:50;2.95;;;1.80;;
78072;SDS011;67281;48.770;11.440;2023-07-16T12:40:16;1.90;;;1.70;;
78072;SDS011;67281;48.770;11.440;2023-07-16T12:42:43;2.17;;;1.90;;
78072;SDS011;67281;48.770;11.440;2023-07-16T12:45:10;5.35;;;1.90;;
78072;SDS011;67281;48.770;11.440;2023-07-16T12:47:37;2.95;;;1.83;;
78072;SDS011;67281;48.770;11.440;2023-07-16T12:50:05;1.80;;;1.70;;
78072;SDS011;67281;48.770;11.440;2023-07-16T12:52:33;3.85;;;2.65;;
78072;SDS011;67281;48.770;11.440;2023-07-16T12:54:59;2.95;;;2.15;;
78072;SDS011;67281;48.770;11.440;2023-07-16T12:57:26;3.53;;;2.00;;
78072;SDS011;67281;48.770;11.440;2023-07-16T12:59:53;2.20;;;2.00;;
78072;SDS011;67281;48.770;11.440;2023-07-16T13:02:20;2.67;;;1.80;;
78072;SDS011;67281;48.770;11.440;2023-07-16T13:04:47;3.70;;;1.60;;
78072;SDS011;67281;48.770;11.440;2023-07-16T13:07:14;2.97;;;1.75;;
78072;SDS011;67281;48.770;11.440;2023-07-16T13:09:40;3.25;;;2.03;;
78072;SDS011;67281;48.770;11.440;2023-07-16T13:12:07;5.10;;;2.05;;
78072;SDS011;67281;48.770;11.440;2023-07-16T13:14:34;1.98;;;1.50;;
78072;SDS011;67281;48.770;11.440;2023-07-16T13:17:01;2.45;;;1.48;;
78072;SDS011;67281;48.770;11.440;2023-07-16T13:19:30;5.07;;;1.88;;
78072;SDS011;67281;48.770;11.440;2023-07-16T13:21:57;3.20;;;1.40;;
78072;SDS011;67281;48.770;11.440;2023-07-16T13:24:24;5.38;;;1.70;;
78072;SDS011;67281;48.770;11.440;2023-07-16T13:26:52;4.03;;;2.10;;
78072;SDS011;67281;48.770;11.440;2023-07-16T13:29:21;2.22;;;1.52;;
78072;SDS011;67281;48.770;11.440;2023-07-16T13:31:48;3.88;;;1.63;;
78072;SDS011;67281;48.770;11.440;2023-07-16T13:34:15;2.83;;;1.77;;
78072;SDS011;67281;48.770;11.440;2023-07-16T13:36:42;2.65;;;1.70;;
78072;SDS011;67281;48.770;11.440;2023-07-16T13:39:09;2.50;;;1.90;;
78072;SDS011;67281;48.770;11.440;2023-07-16T13:41:36;1.40;;;1.30;;
78072;SDS011;67281;48.770;11.440;2023-07-16T13:44:03;1.92;;;1.73;;
78072;SDS011;67281;48.770;11.440;2023-07-16T13:46:30;2.30;;;1.45;;
78072;SDS011;67281;48.770;11.440;2023-07-16T13:48:57;2.28;;;1.58;;
78072;SDS011;67281;48.770;11.440;2023-07-16T13:51:26;4.88;;;1.60;;
78072;SDS011;67281;48.770;11.440;2023-07-16T13:53:53;1.50;;;1.40;;
78072;SDS011;67281;48.770;11.440;2023-07-16T13:56:20;3.58;;;1.83;;
78072;SDS011;67281;48.770;11.440;2023-07-16T13:58:47;3.35;;;1.60;;
78072;SDS011;67281;48.770;11.440;2023-07-16T14:01:14;1.67;;;1.30;;
78072;SDS011;67281;48.770;11.440;2023-07-16T14:03:41;3.28;;;1.67;;
78072;SDS011;67281;48.770;11.440;2023-07-16T14:06:08;3.15;;;1.67;;
78072;SDS011;67281;48.770;11.440;2023-07-16T14:08:35;2.95;;;1.50;;
78072;SDS011;67281;48.770;11.440;2023-07-16T14:11:02;2.70;;;1.90;;
78072;SDS011;67281;48.770;11.440;2023-07-16T14:13:29;3.45;;;1.98;;
78072;SDS011;67281;48.770;11.440;2023-07-16T14:15:56;2.42;;;1.85;;
78072;SDS011;67281;48.770;11.440;2023-07-16T14:18:23;3.35;;;1.58;;
78072;SDS011;67281;48.770;11.440;2023-07-16T14:20:50;2.53;;;1.90;;
78072;SDS011;67281;48.770;11.440;2023-07-16T14:23:17;4.63;;;1.90;;
78072;SDS011;67281;48.770;11.440;2023-07-16T14:25:44;2.90;;;1.90;;
78072;SDS011;67281;48.770;11.440;2023-07-16T14:28:11;2.22;;;1.85;;
78072;SDS011;67281;48.770;11.440;2023-07-16T14:30:37;2.90;;;1.52;;
78072;SDS011;67281;48.770;11.440;2023-07-16T14:33:04;3.92;;;1.90;;
78072;SDS011;67281;48.770;11.440;2023-07-16T14:35:32;2.85;;;1.88;;
78072;SDS011;67281;48.770;11.440;2023-07-16T14:38:03;3.10;;;2.00;;
78072;SDS011;67281;48.770;11.440;2023-07-16T14:40:30;3.63;;;1.70;;
78072;SDS011;67281;48.770;11.440;2023-07-16T14:42:57;3.13;;;1.67;;